createdAt,value
2017-06-20T00:02:09.708Z,11.13
2017-06-20T00:04:38.781Z,10.87
2017-06-20T00:07:07.854Z,11.17
2017-06-20T00:09:36.931Z,11.73
2017-06-20T00:12:06.951Z,11.77
2017-06-20T00:14:35.995Z,11.67
2017-06-20T00:17:05.085Z,11.37
2017-06-20T00:19:34.159Z,11.77
2017-06-20T00:22:03.216Z,11.23
2017-06-20T00:24:32.296Z,12.20
2017-06-20T00:27:01.340Z,12.10
2017-06-20T00:29:30.551Z,11.40
2017-06-20T00:31:59.641Z,13.20
2017-06-20T00:34:28.725Z,12.67
2017-06-20T00:36:57.791Z,12.50
2017-06-20T00:39:26.863Z,11.67
2017-06-20T00:41:55.968Z,12.30
2017-06-20T00:44:25.035Z,11.77
2017-06-20T00:46:54.112Z,11.37
2017-06-20T00:49:23.168Z,11.80
2017-06-20T00:51:52.276Z,11.80
2017-06-20T00:54:22.198Z,12.37
2017-06-20T00:56:51.533Z,11.90
2017-06-20T00:59:20.664Z,11.87
2017-06-20T01:01:49.773Z,12.40
2017-06-20T01:04:18.848Z,12.83
2017-06-20T01:06:47.960Z,12.40
2017-06-20T01:09:16.995Z,11.70
2017-06-20T01:11:46.064Z,12.33
2017-06-20T01:14:15.886Z,12.93
2017-06-20T01:16:45.724Z,11.43
2017-06-20T01:19:14.833Z,12.70
2017-06-20T01:21:43.900Z,13.10
2017-06-20T01:24:13.725Z,13.23
2017-06-20T01:26:42.825Z,12.90
2017-06-20T01:29:12.167Z,13.50
2017-06-20T01:31:41.213Z,12.63
2017-06-20T01:34:10.281Z,11.80
2017-06-20T01:36:40.116Z,12.73
2017-06-20T01:39:09.251Z,11.97
2017-06-20T01:41:38.311Z,13.33
2017-06-20T01:44:07.983Z,12.27
2017-06-20T01:46:37.027Z,14.17
2017-06-20T01:49:06.089Z,13.30
2017-06-20T01:51:35.926Z,13.10
2017-06-20T01:54:05.008Z,13.30
2017-06-20T01:56:34.081Z,13.07
2017-06-20T01:59:03.944Z,17.17
2017-06-20T02:01:33.024Z,12.10
2017-06-20T02:04:02.104Z,13.87
2017-06-20T02:06:31.187Z,14.00
2017-06-20T02:09:01.018Z,14.53
2017-06-20T02:11:30.107Z,13.80
2017-06-20T02:13:59.945Z,14.40
2017-06-20T02:16:29.032Z,14.97
2017-06-20T02:18:58.092Z,14.57
2017-06-20T02:21:27.934Z,13.87
2017-06-20T02:23:57.008Z,14.70
2017-06-20T02:26:26.084Z,13.57
2017-06-20T02:28:55.148Z,12.77
2017-06-20T02:31:24.235Z,13.13
2017-06-20T02:33:53.331Z,12.13
2017-06-20T02:36:22.398Z,12.90
2017-06-20T02:38:51.453Z,12.47
2017-06-20T02:41:20.532Z,10.80
2017-06-20T02:43:49.583Z,10.93
2017-06-20T02:46:18.674Z,13.10
2017-06-20T02:48:48.486Z,10.97
2017-06-20T02:51:17.542Z,11.30
2017-06-20T02:53:47.626Z,11.27
2017-06-20T02:56:16.684Z,11.00
2017-06-20T02:58:46.548Z,12.33
2017-06-20T03:01:15.832Z,11.53
2017-06-20T03:03:45.105Z,12.17
2017-06-20T03:06:14.985Z,12.03
2017-06-20T03:08:44.055Z,12.53
2017-06-20T03:11:14.953Z,11.80
2017-06-20T03:13:44.036Z,11.30
2017-06-20T03:16:13.853Z,12.37
2017-06-20T03:18:43.686Z,12.73
2017-06-20T03:21:12.796Z,12.30
2017-06-20T03:23:41.864Z,13.00
2017-06-20T03:26:10.962Z,12.13
2017-06-20T03:28:40.795Z,12.23
2017-06-20T03:31:09.849Z,11.93
2017-06-20T03:33:39.944Z,12.57
2017-06-20T03:36:09.022Z,12.00
2017-06-20T03:38:38.109Z,11.13
2017-06-20T03:41:07.426Z,12.33
2017-06-20T03:43:36.695Z,13.03
2017-06-20T03:46:05.796Z,11.70
2017-06-20T03:48:34.883Z,12.90
2017-06-20T03:51:03.965Z,11.07
2017-06-20T03:53:33.778Z,11.47
2017-06-20T03:56:02.868Z,10.80
2017-06-20T03:58:32.776Z,10.70
2017-06-20T04:01:02.633Z,11.20
2017-06-20T04:03:31.726Z,11.40
2017-06-20T04:06:00.793Z,10.93
2017-06-20T04:08:29.863Z,9.40
2017-06-20T04:10:58.928Z,10.10
2017-06-20T04:13:27.996Z,10.80
2017-06-20T04:15:57.055Z,10.43
2017-06-20T04:18:26.868Z,10.33
2017-06-20T04:21:02.256Z,10.70
2017-06-20T04:23:31.324Z,10.20
2017-06-20T04:26:00.395Z,11.03
2017-06-20T04:28:29.485Z,10.80
2017-06-20T04:30:58.536Z,11.93
2017-06-20T04:33:27.624Z,12.50
2017-06-20T04:35:56.712Z,12.20
2017-06-20T04:38:26.038Z,11.47
2017-06-20T04:40:55.167Z,10.43
2017-06-20T04:43:24.220Z,12.43
2017-06-20T04:45:53.277Z,11.03
2017-06-20T04:48:23.136Z,11.33
2017-06-20T04:50:52.224Z,10.90
2017-06-20T04:53:21.279Z,11.10
2017-06-20T04:55:51.108Z,10.93
2017-06-20T04:58:20.166Z,10.13
2017-06-20T05:00:49.263Z,9.90
2017-06-20T05:03:18.332Z,11.13
2017-06-20T05:05:47.394Z,11.03
2017-06-20T05:08:16.475Z,11.37
2017-06-20T05:10:45.563Z,9.80
2017-06-20T05:13:15.397Z,10.00
2017-06-20T05:15:44.576Z,9.67
2017-06-20T05:18:14.419Z,9.57
2017-06-20T05:20:43.452Z,9.00
2017-06-20T05:23:12.885Z,9.47
2017-06-20T05:25:41.936Z,10.47
2017-06-20T05:28:11.901Z,10.37
2017-06-20T05:30:40.974Z,10.13
2017-06-20T05:33:10.039Z,9.87
2017-06-20T05:35:39.137Z,13.50
2017-06-20T05:38:08.216Z,8.80
2017-06-20T05:40:37.267Z,9.80
2017-06-20T05:43:07.120Z,9.63
2017-06-20T05:45:36.177Z,11.73
2017-06-20T05:48:06.016Z,8.90
2017-06-20T05:50:35.075Z,9.60
2017-06-20T05:53:04.901Z,9.73
2017-06-20T05:55:34.724Z,9.90
2017-06-20T05:58:03.792Z,9.50
2017-06-20T06:00:33.656Z,11.13
2017-06-20T06:03:02.728Z,9.90
2017-06-20T06:05:32.064Z,10.13
2017-06-20T06:08:01.132Z,9.67
2017-06-20T06:10:30.176Z,8.93
2017-06-20T06:12:59.274Z,10.40
2017-06-20T06:15:28.335Z,10.93
2017-06-20T06:17:57.404Z,8.10
2017-06-20T06:20:27.208Z,9.97
2017-06-20T06:22:57.029Z,8.60
2017-06-20T06:25:26.133Z,11.80
2017-06-20T06:27:55.244Z,8.90
2017-06-20T06:30:24.309Z,12.03
2017-06-20T06:32:53.387Z,10.33
2017-06-20T06:35:23.228Z,8.87
2017-06-20T06:37:52.363Z,8.70
2017-06-20T06:40:21.536Z,10.77
2017-06-20T06:42:50.585Z,11.20
2017-06-20T06:45:20.404Z,9.87
2017-06-20T06:47:50.266Z,11.30
2017-06-20T06:50:19.332Z,9.50
2017-06-20T06:52:48.406Z,12.53
2017-06-20T06:55:18.314Z,10.63
2017-06-20T06:57:47.346Z,10.23
2017-06-20T07:00:16.401Z,10.63
2017-06-20T07:02:45.505Z,9.60
2017-06-20T07:05:15.324Z,10.30
2017-06-20T07:07:44.384Z,11.80
2017-06-20T07:10:14.509Z,10.97
2017-06-20T07:12:43.545Z,9.70
2017-06-20T07:15:12.625Z,11.30
2017-06-20T07:17:42.447Z,12.40
2017-06-20T07:20:11.538Z,10.63
2017-06-20T07:22:40.992Z,11.33
2017-06-20T07:25:11.059Z,10.27
2017-06-20T07:27:40.076Z,9.13
2017-06-20T07:30:10.005Z,12.80
2017-06-20T07:32:39.067Z,9.73
2017-06-20T07:35:08.128Z,9.97
2017-06-20T07:37:37.215Z,9.70
2017-06-20T07:40:06.572Z,12.47
2017-06-20T07:42:35.628Z,11.63
2017-06-20T07:45:05.480Z,11.70
2017-06-20T07:47:34.553Z,12.13
2017-06-20T07:50:04.376Z,14.70
2017-06-20T07:52:33.460Z,15.00
2017-06-20T07:55:03.324Z,13.70
2017-06-20T07:57:32.424Z,14.83
2017-06-20T08:00:01.519Z,14.73
2017-06-20T08:02:30.575Z,14.60
2017-06-20T08:04:59.703Z,14.43
2017-06-20T08:07:28.815Z,15.23
2017-06-20T08:09:57.887Z,15.50
2017-06-20T08:12:26.990Z,16.07
2017-06-20T08:14:56.052Z,15.10
2017-06-20T08:17:25.136Z,17.60
2017-06-20T08:19:54.209Z,17.13
2017-06-20T08:22:24.031Z,18.83
2017-06-20T08:24:53.870Z,16.80
2017-06-20T08:27:22.961Z,19.50
2017-06-20T08:29:52.020Z,20.47
2017-06-20T08:32:21.116Z,22.83
2017-06-20T08:34:50.340Z,23.77
2017-06-20T08:37:25.372Z,24.60
2017-06-20T08:39:55.325Z,25.07
2017-06-20T08:42:24.390Z,28.17
2017-06-20T08:44:53.510Z,25.73
2017-06-20T08:47:22.562Z,26.53
2017-06-20T08:49:52.425Z,28.90
2017-06-20T08:52:21.499Z,25.83
2017-06-20T08:54:50.551Z,27.77
2017-06-20T08:57:19.648Z,26.23
2017-06-20T08:59:48.744Z,23.60
2017-06-20T09:02:17.811Z,24.80
2017-06-20T09:04:46.941Z,25.67
2017-06-20T09:07:17.028Z,23.17
2017-06-20T09:09:46.105Z,22.87
2017-06-20T09:12:15.158Z,23.90
2017-06-20T09:14:44.988Z,23.77
2017-06-20T09:17:14.096Z,20.57
2017-06-20T09:19:43.155Z,21.50
2017-06-20T09:22:12.312Z,20.83
2017-06-20T09:24:41.394Z,20.77
2017-06-20T09:27:10.537Z,19.57
2017-06-20T09:29:39.612Z,26.33
2017-06-20T09:32:08.725Z,21.13
2017-06-20T09:34:37.811Z,19.93
2017-06-20T09:37:06.860Z,22.10
2017-06-20T09:39:35.947Z,20.47
2017-06-20T09:42:05.081Z,22.57
2017-06-20T09:44:34.143Z,20.20
2017-06-20T09:47:03.230Z,24.10
2017-06-20T09:49:32.406Z,26.10
2017-06-20T09:52:02.255Z,23.27
2017-06-20T09:54:31.329Z,23.40
2017-06-20T09:57:00.404Z,23.03
2017-06-20T09:59:29.469Z,22.60
2017-06-20T10:01:58.544Z,21.17
2017-06-20T10:04:27.607Z,27.47
2017-06-20T10:06:56.682Z,24.13
2017-06-20T10:09:26.529Z,24.37
2017-06-20T10:11:55.583Z,19.40
2017-06-20T10:14:24.644Z,25.07
2017-06-20T10:16:53.736Z,24.67
2017-06-20T10:19:22.812Z,24.73
2017-06-20T10:21:51.896Z,19.47
2017-06-20T10:24:21.707Z,22.80
2017-06-20T10:26:50.767Z,19.97
2017-06-20T10:29:19.841Z,19.33
2017-06-20T10:31:48.927Z,18.03
2017-06-20T10:34:18.295Z,20.20
2017-06-20T10:36:47.364Z,19.47
2017-06-20T10:39:16.447Z,15.57
2017-06-20T10:41:45.544Z,15.77
2017-06-20T10:44:14.584Z,17.40
2017-06-20T10:46:43.660Z,19.67
2017-06-20T10:49:13.476Z,21.67
2017-06-20T10:51:42.576Z,20.60
2017-06-20T10:54:12.400Z,19.50
2017-06-20T10:56:41.572Z,20.53
2017-06-20T10:59:10.652Z,20.23
2017-06-20T11:01:39.738Z,20.57
2017-06-20T11:04:08.831Z,24.10
2017-06-20T11:06:37.872Z,22.13
2017-06-20T11:09:06.942Z,22.30
2017-06-20T11:11:36.812Z,22.50
2017-06-20T11:14:05.911Z,23.00
2017-06-20T11:16:35.004Z,20.47
2017-06-20T11:19:04.061Z,22.37
2017-06-20T11:21:33.174Z,17.27
2017-06-20T11:24:02.356Z,18.40
2017-06-20T11:26:31.447Z,17.27
2017-06-20T11:29:01.245Z,15.27
2017-06-20T11:31:31.096Z,19.03
2017-06-20T11:34:00.165Z,18.37
2017-06-20T11:36:30.081Z,18.00
2017-06-20T11:38:59.160Z,16.60
2017-06-20T11:41:28.999Z,18.27
2017-06-20T11:43:58.200Z,16.70
2017-06-20T11:46:27.275Z,14.93
2017-06-20T11:48:56.356Z,13.87
2017-06-20T11:51:25.417Z,15.30
2017-06-20T11:53:54.499Z,12.70
2017-06-20T11:56:23.595Z,12.43
2017-06-20T11:58:52.652Z,14.57
2017-06-20T12:01:22.518Z,13.80
2017-06-20T12:03:51.589Z,12.00
2017-06-20T12:06:21.476Z,12.33
2017-06-20T12:08:51.309Z,11.43
2017-06-20T12:11:20.395Z,13.17
2017-06-20T12:13:49.476Z,13.33
2017-06-20T12:16:19.300Z,12.80
2017-06-20T12:18:48.369Z,10.40
2017-06-20T12:21:17.436Z,11.00
2017-06-20T12:23:46.504Z,10.60
2017-06-20T12:26:15.595Z,11.20
2017-06-20T12:28:44.648Z,13.73
2017-06-20T12:31:14.507Z,10.90
2017-06-20T12:33:43.576Z,12.70
2017-06-20T12:36:12.665Z,13.93
2017-06-20T12:38:42.500Z,12.67
2017-06-20T12:41:11.617Z,12.00
2017-06-20T12:43:40.714Z,11.97
2017-06-20T12:46:09.830Z,10.47
2017-06-20T12:48:38.896Z,10.90
2017-06-20T12:51:08.019Z,10.37
2017-06-20T12:53:37.067Z,11.63
2017-06-20T12:56:06.935Z,9.63
2017-06-20T12:58:35.974Z,10.00
2017-06-20T13:01:05.068Z,10.20
2017-06-20T13:03:34.125Z,9.03
2017-06-20T13:06:04.864Z,9.47
2017-06-20T13:08:33.947Z,8.47
2017-06-20T13:11:03.008Z,8.80
2017-06-20T13:13:32.064Z,9.07
2017-06-20T13:16:01.873Z,9.33
2017-06-20T13:18:31.715Z,9.63
2017-06-20T13:21:00.787Z,8.90
2017-06-20T13:23:29.837Z,9.63
2017-06-20T13:25:58.933Z,9.23
2017-06-20T13:28:27.989Z,8.40
2017-06-20T13:30:57.797Z,9.17
2017-06-20T13:33:26.876Z,9.10
2017-06-20T13:35:56.709Z,8.50
2017-06-20T13:38:25.761Z,8.07
2017-06-20T13:40:54.861Z,9.23
2017-06-20T13:43:23.947Z,9.13
2017-06-20T13:45:53.046Z,8.87
2017-06-20T13:48:22.106Z,9.23
2017-06-20T13:50:51.188Z,8.40
2017-06-20T13:53:20.264Z,8.33
2017-06-20T13:55:49.345Z,7.40
2017-06-20T13:58:19.185Z,7.80
2017-06-20T14:00:48.261Z,8.30
2017-06-20T14:03:18.115Z,8.17
2017-06-20T14:05:47.186Z,8.20
2017-06-20T14:08:16.257Z,8.43
2017-06-20T14:10:45.324Z,8.77
2017-06-20T14:13:14.392Z,8.10
2017-06-20T14:15:43.509Z,7.60
2017-06-20T14:18:12.585Z,8.10
2017-06-20T14:20:41.652Z,8.57
2017-06-20T14:23:11.464Z,8.20
2017-06-20T14:25:40.564Z,9.07
2017-06-20T14:28:09.655Z,8.50
2017-06-20T14:30:39.467Z,8.13
2017-06-20T14:33:09.330Z,8.23
2017-06-20T14:35:38.383Z,8.20
2017-06-20T14:38:07.457Z,8.47
2017-06-20T14:40:37.300Z,10.43
2017-06-20T14:43:06.431Z,9.50
2017-06-20T14:45:35.526Z,9.20
2017-06-20T14:48:04.607Z,9.20
2017-06-20T14:50:33.704Z,8.30
2017-06-20T14:53:02.804Z,8.77
2017-06-20T14:55:31.837Z,8.10
2017-06-20T14:58:01.681Z,9.93
2017-06-20T15:00:30.772Z,13.23
2017-06-20T15:02:59.848Z,10.53
2017-06-20T15:05:28.940Z,12.43
2017-06-20T15:07:58.005Z,11.53
2017-06-20T15:10:27.968Z,10.70
2017-06-20T15:12:57.114Z,11.00
2017-06-20T15:15:26.161Z,13.20
2017-06-20T15:17:55.229Z,11.80
2017-06-20T15:20:25.193Z,11.43
2017-06-20T15:22:54.229Z,14.30
2017-06-20T15:25:23.637Z,12.47
2017-06-20T15:27:52.720Z,11.27
2017-06-20T15:30:21.800Z,11.73
2017-06-20T15:32:50.861Z,11.50
2017-06-20T15:35:19.956Z,11.57
2017-06-20T15:37:49.035Z,14.33
2017-06-20T15:40:18.135Z,11.83
2017-06-20T15:42:47.316Z,10.93
2017-06-20T15:45:16.389Z,12.23
2017-06-20T15:47:45.484Z,11.33
2017-06-20T15:50:14.595Z,11.87
2017-06-20T15:52:43.690Z,11.20
2017-06-20T15:55:12.769Z,11.90
2017-06-20T15:57:41.855Z,13.43
2017-06-20T16:00:10.952Z,10.93
2017-06-20T16:02:40.024Z,10.77
2017-06-20T16:05:09.125Z,12.83
2017-06-20T16:07:38.215Z,11.13
2017-06-20T16:10:07.288Z,11.23
2017-06-20T16:12:36.384Z,11.17
2017-06-20T16:15:05.454Z,9.73
2017-06-20T16:17:34.565Z,9.63
2017-06-20T16:20:03.637Z,10.77
2017-06-20T16:22:32.700Z,10.33
2017-06-20T16:25:02.021Z,10.93
2017-06-20T16:27:31.093Z,10.97
2017-06-20T16:30:00.201Z,9.60
2017-06-20T16:32:29.271Z,10.00
2017-06-20T16:34:58.350Z,9.73
2017-06-20T16:37:27.443Z,10.37
2017-06-20T16:39:56.474Z,9.77
2017-06-20T16:42:25.543Z,10.97
2017-06-20T16:44:54.588Z,8.80
2017-06-20T16:47:23.677Z,9.43
2017-06-20T16:49:52.720Z,9.90
2017-06-20T16:52:21.767Z,9.13
2017-06-20T16:54:50.834Z,9.73
2017-06-20T16:57:19.893Z,7.40
2017-06-20T16:59:48.960Z,9.10
2017-06-20T17:02:18.017Z,8.10
2017-06-20T17:04:47.075Z,7.80
2017-06-20T17:07:16.161Z,10.73
2017-06-20T17:09:45.259Z,7.63
2017-06-20T17:12:14.358Z,7.40
2017-06-20T17:14:43.417Z,7.67
2017-06-20T17:17:12.642Z,7.30
2017-06-20T17:19:41.688Z,7.47
2017-06-20T17:22:10.806Z,7.00
2017-06-20T17:24:39.903Z,7.23
2017-06-20T17:27:08.991Z,6.30
2017-06-20T17:29:38.071Z,6.60
2017-06-20T17:32:07.148Z,7.53
2017-06-20T17:34:36.220Z,7.93
2017-06-20T17:37:05.287Z,6.40
2017-06-20T17:39:34.395Z,7.20
2017-06-20T17:42:03.444Z,7.30
2017-06-20T17:44:32.531Z,11.37
2017-06-20T17:47:01.587Z,6.33
2017-06-20T17:49:30.631Z,6.43
2017-06-20T17:51:59.763Z,5.77
2017-06-20T17:54:28.891Z,9.27
2017-06-20T17:56:58.619Z,8.33
2017-06-20T17:59:27.695Z,6.03
2017-06-20T18:01:56.743Z,7.00
2017-06-20T18:04:25.900Z,7.57
2017-06-20T18:06:54.966Z,5.83
2017-06-20T18:09:24.017Z,6.50
2017-06-20T18:11:53.111Z,5.60
2017-06-20T18:14:22.203Z,8.10
2017-06-20T18:16:51.257Z,6.30
2017-06-20T18:19:20.318Z,8.73
2017-06-20T18:21:49.484Z,7.07
2017-06-20T18:24:18.557Z,7.50
2017-06-20T18:26:47.616Z,6.33
2017-06-20T18:29:16.666Z,6.60
2017-06-20T18:31:45.751Z,7.43
2017-06-20T18:34:14.852Z,6.47
2017-06-20T18:36:43.927Z,5.27
2017-06-20T18:39:12.990Z,6.13
2017-06-20T18:41:42.111Z,6.23
2017-06-20T18:44:11.196Z,5.10
2017-06-20T18:46:40.298Z,8.03
2017-06-20T18:49:09.348Z,8.93
2017-06-20T18:51:38.458Z,5.50
2017-06-20T18:54:07.577Z,5.33
2017-06-20T18:56:36.671Z,5.03
2017-06-20T18:59:05.721Z,5.27
2017-06-20T19:01:34.780Z,8.57
2017-06-20T19:04:03.866Z,5.30
2017-06-20T19:06:32.898Z,4.40
2017-06-20T19:09:01.951Z,5.53
2017-06-20T19:11:31.025Z,5.87
2017-06-20T19:14:00.091Z,5.13
2017-06-20T19:16:29.165Z,4.93
2017-06-20T19:18:58.252Z,5.57
2017-06-20T19:21:27.327Z,5.73
2017-06-20T19:23:56.400Z,7.77
2017-06-20T19:26:26.214Z,7.37
2017-06-20T19:28:56.266Z,6.93
2017-06-20T19:31:25.332Z,6.50
2017-06-20T19:33:55.181Z,6.07
2017-06-20T19:36:24.292Z,4.17
2017-06-20T19:38:53.362Z,7.33
2017-06-20T19:41:22.420Z,5.93
2017-06-20T19:43:52.865Z,7.80
2017-06-20T19:46:21.924Z,5.03
2017-06-20T19:48:50.996Z,7.73
2017-06-20T19:51:20.079Z,13.13
2017-06-20T19:53:49.176Z,5.17
2017-06-20T19:56:18.288Z,4.73
2017-06-20T19:58:47.359Z,3.40
2017-06-20T20:01:16.415Z,5.40
2017-06-20T20:03:46.280Z,4.70
2017-06-20T20:06:15.340Z,5.97
2017-06-20T20:08:44.419Z,6.00
2017-06-20T20:11:14.267Z,6.93
2017-06-20T20:13:43.336Z,4.47
2017-06-20T20:16:13.182Z,5.23
2017-06-20T20:18:42.252Z,4.70
2017-06-20T20:21:11.345Z,4.00
2017-06-20T20:23:41.161Z,3.70
2017-06-20T20:26:10.235Z,5.93
2017-06-20T20:28:40.084Z,10.57
2017-06-20T20:31:09.127Z,4.20
2017-06-20T20:33:38.197Z,7.17
2017-06-20T20:36:07.311Z,4.33
2017-06-20T20:38:36.335Z,6.37
2017-06-20T20:41:06.435Z,6.60
2017-06-20T20:43:35.511Z,4.57
2017-06-20T20:46:04.580Z,4.93
2017-06-20T20:48:33.712Z,4.50
2017-06-20T20:51:02.814Z,7.10
2017-06-20T20:53:31.869Z,3.67
2017-06-20T20:56:00.932Z,5.80
2017-06-20T20:58:30.037Z,5.90
2017-06-20T21:00:59.876Z,5.47
2017-06-20T21:03:28.924Z,3.80
2017-06-20T21:05:58.772Z,5.10
2017-06-20T21:08:27.922Z,6.03
2017-06-20T21:10:57.780Z,3.87
2017-06-20T21:13:26.835Z,4.50
2017-06-20T21:15:55.898Z,4.43
2017-06-20T21:18:24.983Z,5.87
2017-06-20T21:20:54.064Z,6.60
2017-06-20T21:23:23.117Z,4.57
2017-06-20T21:25:52.963Z,4.57
2017-06-20T21:28:22.043Z,4.70
2017-06-20T21:30:51.125Z,3.87
2017-06-20T21:33:20.956Z,4.00
2017-06-20T21:35:50.036Z,7.70
2017-06-20T21:38:19.871Z,3.97
2017-06-20T21:40:48.934Z,5.77
2017-06-20T21:43:18.011Z,3.67
2017-06-20T21:45:47.072Z,4.57
2017-06-20T21:48:16.144Z,5.10
2017-06-20T21:50:45.212Z,4.23
2017-06-20T21:53:15.046Z,6.60
2017-06-20T21:55:44.902Z,5.10
2017-06-20T21:58:13.976Z,5.23
2017-06-20T22:00:43.021Z,4.50
2017-06-20T22:03:12.108Z,4.40
2017-06-20T22:05:41.165Z,5.30
2017-06-20T22:08:10.249Z,9.30
2017-06-20T22:10:39.315Z,7.37
2017-06-20T22:13:09.152Z,5.37
2017-06-20T22:15:38.222Z,3.97
2017-06-20T22:18:07.552Z,5.20
2017-06-20T22:20:36.627Z,7.10
2017-06-20T22:23:05.700Z,5.00
2017-06-20T22:25:34.801Z,4.10
2017-06-20T22:28:04.914Z,6.13
2017-06-20T22:30:35.063Z,2.97
2017-06-20T22:33:04.128Z,3.33
2017-06-20T22:35:33.215Z,6.43
2017-06-20T22:38:02.299Z,3.37
2017-06-20T22:40:31.372Z,3.90
2017-06-20T22:43:00.518Z,7.43
2017-06-20T22:45:29.578Z,4.97
2017-06-20T22:47:58.669Z,4.90
2017-06-20T22:50:27.765Z,8.83
2017-06-20T22:52:56.821Z,2.47
2017-06-20T22:55:25.883Z,6.30
2017-06-20T22:57:54.953Z,4.47
2017-06-20T23:00:24.007Z,3.03
2017-06-20T23:02:53.058Z,2.87
2017-06-20T23:05:22.124Z,4.43
2017-06-20T23:07:51.205Z,4.33
2017-06-20T23:10:20.404Z,3.30
2017-06-20T23:12:49.492Z,2.80
2017-06-20T23:15:18.752Z,2.37
2017-06-20T23:17:47.828Z,1.93
2017-06-20T23:20:16.932Z,5.63
2017-06-20T23:22:45.968Z,2.27
2017-06-20T23:25:15.088Z,2.60
2017-06-20T23:27:44.144Z,3.03
2017-06-20T23:30:13.222Z,4.53
2017-06-20T23:32:42.296Z,3.00
2017-06-20T23:35:11.348Z,4.03
2017-06-20T23:37:40.414Z,4.30
2017-06-20T23:40:09.493Z,3.23
2017-06-20T23:42:38.508Z,4.73
2017-06-20T23:45:07.651Z,4.73
2017-06-20T23:47:36.684Z,4.00
2017-06-20T23:50:05.989Z,2.93
2017-06-20T23:52:35.032Z,5.43
2017-06-20T23:55:04.090Z,3.00
2017-06-20T23:57:33.188Z,2.33
